sensor_id;sensor_type;location;lat;lon;timestamp;temperature;humidity
43772;HTU21D;59066;54.782;32.024;2023-12-20T00:01:06;4.54;104.73
43772;HTU21D;59066;54.782;32.024;2023-12-20T00:03:34;4.48;104.75
43772;HTU21D;59066;54.782;32.024;2023-12-20T00:06:07;4.59;104.82
43772;HTU21D;59066;54.782;32.024;2023-12-20T00:08:35;4.57;104.82
43772;HTU21D;59066;54.782;32.024;2023-12-20T00:11:02;4.61;104.60
43772;HTU21D;59066;54.782;32.024;2023-12-20T00:13:30;4.65;104.39
43772;HTU21D;59066;54.782;32.024;2023-12-20T00:15:58;4.63;104.37
43772;HTU21D;59066;54.782;32.024;2023-12-20T00:18:25;4.65;104.47
43772;HTU21D;59066;54.782;32.024;2023-12-20T00:20:53;4.66;104.45
43772;HTU21D;59066;54.782;32.024;2023-12-20T00:23:20;4.67;104.14
43772;HTU21D;59066;54.782;32.024;2023-12-20T00:25:50;4.68;104.15
43772;HTU21D;59066;54.782;32.024;2023-12-20T00:28:17;4.74;104.32
43772;HTU21D;59066;54.782;32.024;2023-12-20T00:30:45;4.68;103.89
43772;HTU21D;59066;54.782;32.024;2023-12-20T00:33:13;4.72;103.88
43772;HTU21D;59066;54.782;32.024;2023-12-20T00:35:41;4.68;103.84
43772;HTU21D;59066;54.782;32.024;2023-12-20T00:38:09;4.63;103.95
43772;HTU21D;59066;54.782;32.024;2023-12-20T00:40:38;4.65;103.71
43772;HTU21D;59066;54.782;32.024;2023-12-20T00:43:05;4.58;103.72
43772;HTU21D;59066;54.782;32.024;2023-12-20T00:45:33;4.62;104.09
43772;HTU21D;59066;54.782;32.024;2023-12-20T00:48:01;4.54;104.01
43772;HTU21D;59066;54.782;32.024;2023-12-20T00:50:29;4.54;104.21
43772;HTU21D;59066;54.782;32.024;2023-12-20T00:52:56;4.58;104.41
43772;HTU21D;59066;54.782;32.024;2023-12-20T00:55:24;4.54;104.32
43772;HTU21D;59066;54.782;32.024;2023-12-20T00:57:52;4.51;104.44
43772;HTU21D;59066;54.782;32.024;2023-12-20T01:00:21;4.49;104.42
43772;HTU21D;59066;54.782;32.024;2023-12-20T01:02:49;4.48;104.58
43772;HTU21D;59066;54.782;32.024;2023-12-20T01:05:19;4.47;104.62
43772;HTU21D;59066;54.782;32.024;2023-12-20T01:07:51;4.50;104.63
43772;HTU21D;59066;54.782;32.024;2023-12-20T01:10:19;4.48;104.73
43772;HTU21D;59066;54.782;32.024;2023-12-20T01:12:47;4.49;104.60
43772;HTU21D;59066;54.782;32.024;2023-12-20T01:15:15;4.47;104.67
43772;HTU21D;59066;54.782;32.024;2023-12-20T01:17:43;4.49;104.77
43772;HTU21D;59066;54.782;32.024;2023-12-20T01:20:11;4.51;104.60
43772;HTU21D;59066;54.782;32.024;2023-12-20T01:22:38;4.56;104.85
43772;HTU21D;59066;54.782;32.024;2023-12-20T01:25:06;4.52;104.65
43772;HTU21D;59066;54.782;32.024;2023-12-20T01:27:34;4.53;104.76
43772;HTU21D;59066;54.782;32.024;2023-12-20T01:30:02;4.49;104.51
43772;HTU21D;59066;54.782;32.024;2023-12-20T01:32:29;4.45;104.66
43772;HTU21D;59066;54.782;32.024;2023-12-20T01:34:57;4.43;104.83
43772;HTU21D;59066;54.782;32.024;2023-12-20T01:37:28;4.42;104.86
43772;HTU21D;59066;54.782;32.024;2023-12-20T01:39:56;4.45;104.94
43772;HTU21D;59066;54.782;32.024;2023-12-20T01:42:24;4.41;104.94
43772;HTU21D;59066;54.782;32.024;2023-12-20T01:44:51;4.39;104.98
43772;HTU21D;59066;54.782;32.024;2023-12-20T01:47:19;4.44;104.97
43772;HTU21D;59066;54.782;32.024;2023-12-20T01:49:47;4.43;104.95
43772;HTU21D;59066;54.782;32.024;2023-12-20T01:52:16;4.48;105.09
43772;HTU21D;59066;54.782;32.024;2023-12-20T01:54:44;4.45;105.06
43772;HTU21D;59066;54.782;32.024;2023-12-20T01:57:12;4.48;104.98
43772;HTU21D;59066;54.782;32.024;2023-12-20T01:59:40;4.45;105.14
43772;HTU21D;59066;54.782;32.024;2023-12-20T02:02:08;4.44;104.94
43772;HTU21D;59066;54.782;32.024;2023-12-20T02:04:36;4.46;104.90
43772;HTU21D;59066;54.782;32.024;2023-12-20T02:07:04;4.45;105.01
43772;HTU21D;59066;54.782;32.024;2023-12-20T02:09:32;4.44;104.95
43772;HTU21D;59066;54.782;32.024;2023-12-20T02:12:00;4.46;104.91
43772;HTU21D;59066;54.782;32.024;2023-12-20T02:14:28;4.43;104.89
43772;HTU21D;59066;54.782;32.024;2023-12-20T02:16:55;4.45;104.86
43772;HTU21D;59066;54.782;32.024;2023-12-20T02:19:23;4.43;104.93
43772;HTU21D;59066;54.782;32.024;2023-12-20T02:22:05;4.44;104.93
43772;HTU21D;59066;54.782;32.024;2023-12-20T02:24:33;4.41;104.86
43772;HTU21D;59066;54.782;32.024;2023-12-20T02:27:00;4.44;105.07
43772;HTU21D;59066;54.782;32.024;2023-12-20T02:29:28;4.39;105.19
43772;HTU21D;59066;54.782;32.024;2023-12-20T02:31:55;4.41;105.08
43772;HTU21D;59066;54.782;32.024;2023-12-20T02:34:23;4.45;105.21
43772;HTU21D;59066;54.782;32.024;2023-12-20T02:36:51;4.46;105.15
43772;HTU21D;59066;54.782;32.024;2023-12-20T02:39:19;4.47;105.14
43772;HTU21D;59066;54.782;32.024;2023-12-20T02:41:47;4.46;104.97
43772;HTU21D;59066;54.782;32.024;2023-12-20T02:44:14;4.38;105.00
43772;HTU21D;59066;54.782;32.024;2023-12-20T02:46:42;4.37;105.05
43772;HTU21D;59066;54.782;32.024;2023-12-20T02:49:09;4.39;104.85
43772;HTU21D;59066;54.782;32.024;2023-12-20T02:51:37;4.36;105.05
43772;HTU21D;59066;54.782;32.024;2023-12-20T02:54:07;4.37;105.16
43772;HTU21D;59066;54.782;32.024;2023-12-20T02:56:35;4.37;105.15
43772;HTU21D;59066;54.782;32.024;2023-12-20T02:59:03;4.36;104.98
43772;HTU21D;59066;54.782;32.024;2023-12-20T03:01:33;4.33;105.13
43772;HTU21D;59066;54.782;32.024;2023-12-20T03:04:01;4.32;105.07
43772;HTU21D;59066;54.782;32.024;2023-12-20T03:06:32;4.34;105.13
43772;HTU21D;59066;54.782;32.024;2023-12-20T03:08:59;4.36;105.23
43772;HTU21D;59066;54.782;32.024;2023-12-20T03:11:27;4.37;105.34
43772;HTU21D;59066;54.782;32.024;2023-12-20T03:13:56;4.37;105.16
43772;HTU21D;59066;54.782;32.024;2023-12-20T03:16:24;4.36;105.14
43772;HTU21D;59066;54.782;32.024;2023-12-20T03:18:51;4.32;105.10
43772;HTU21D;59066;54.782;32.024;2023-12-20T03:21:19;4.31;105.12
43772;HTU21D;59066;54.782;32.024;2023-12-20T03:23:46;4.32;105.13
43772;HTU21D;59066;54.782;32.024;2023-12-20T03:26:14;4.30;105.27
43772;HTU21D;59066;54.782;32.024;2023-12-20T03:28:42;4.31;105.38
43772;HTU21D;59066;54.782;32.024;2023-12-20T03:31:10;4.31;105.27
43772;HTU21D;59066;54.782;32.024;2023-12-20T03:33:38;4.30;105.26
43772;HTU21D;59066;54.782;32.024;2023-12-20T03:36:06;4.28;105.37
43772;HTU21D;59066;54.782;32.024;2023-12-20T03:38:34;4.30;105.37
43772;HTU21D;59066;54.782;32.024;2023-12-20T03:41:02;4.31;105.50
43772;HTU21D;59066;54.782;32.024;2023-12-20T03:43:29;4.34;105.28
43772;HTU21D;59066;54.782;32.024;2023-12-20T03:45:57;4.33;105.21
43772;HTU21D;59066;54.782;32.024;2023-12-20T03:48:26;4.35;105.24
43772;HTU21D;59066;54.782;32.024;2023-12-20T03:50:53;4.37;105.25
43772;HTU21D;59066;54.782;32.024;2023-12-20T03:53:21;4.32;105.18
43772;HTU21D;59066;54.782;32.024;2023-12-20T03:55:48;4.33;105.24
43772;HTU21D;59066;54.782;32.024;2023-12-20T03:58:16;4.32;105.14
43772;HTU21D;59066;54.782;32.024;2023-12-20T04:00:43;4.34;105.14
43772;HTU21D;59066;54.782;32.024;2023-12-20T04:03:11;4.31;105.21
43772;HTU21D;59066;54.782;32.024;2023-12-20T04:05:41;4.32;105.21
43772;HTU21D;59066;54.782;32.024;2023-12-20T04:08:09;4.33;105.25
43772;HTU21D;59066;54.782;32.024;2023-12-20T04:10:37;4.33;105.51
43772;HTU21D;59066;54.782;32.024;2023-12-20T04:13:04;4.37;105.21
43772;HTU21D;59066;54.782;32.024;2023-12-20T04:15:32;4.35;105.02
43772;HTU21D;59066;54.782;32.024;2023-12-20T04:17:59;4.32;105.10
43772;HTU21D;59066;54.782;32.024;2023-12-20T04:20:27;4.30;105.05
43772;HTU21D;59066;54.782;32.024;2023-12-20T04:22:54;4.27;105.13
43772;HTU21D;59066;54.782;32.024;2023-12-20T04:25:22;4.30;105.00
43772;HTU21D;59066;54.782;32.024;2023-12-20T04:27:49;4.34;105.00
43772;HTU21D;59066;54.782;32.024;2023-12-20T04:30:17;4.31;104.95
43772;HTU21D;59066;54.782;32.024;2023-12-20T04:32:45;4.26;105.08
43772;HTU21D;59066;54.782;32.024;2023-12-20T04:35:13;4.30;105.09
43772;HTU21D;59066;54.782;32.024;2023-12-20T04:37:41;4.31;105.11
43772;HTU21D;59066;54.782;32.024;2023-12-20T04:40:09;4.29;104.98
43772;HTU21D;59066;54.782;32.024;2023-12-20T04:42:37;4.32;104.97
43772;HTU21D;59066;54.782;32.024;2023-12-20T04:45:05;4.33;104.94
43772;HTU21D;59066;54.782;32.024;2023-12-20T04:47:33;4.27;104.84
43772;HTU21D;59066;54.782;32.024;2023-12-20T04:50:01;4.28;104.91
43772;HTU21D;59066;54.782;32.024;2023-12-20T04:52:29;4.27;104.93
43772;HTU21D;59066;54.782;32.024;2023-12-20T04:54:57;4.30;104.86
43772;HTU21D;59066;54.782;32.024;2023-12-20T04:57:26;4.29;104.80
43772;HTU21D;59066;54.782;32.024;2023-12-20T04:59:54;4.26;104.68
43772;HTU21D;59066;54.782;32.024;2023-12-20T05:02:21;4.24;104.82
43772;HTU21D;59066;54.782;32.024;2023-12-20T05:04:49;4.21;104.95
43772;HTU21D;59066;54.782;32.024;2023-12-20T05:07:19;4.26;104.91
43772;HTU21D;59066;54.782;32.024;2023-12-20T05:09:47;4.24;104.79
43772;HTU21D;59066;54.782;32.024;2023-12-20T05:12:15;4.27;104.77
43772;HTU21D;59066;54.782;32.024;2023-12-20T05:14:42;4.28;104.61
43772;HTU21D;59066;54.782;32.024;2023-12-20T05:17:10;4.23;104.53
43772;HTU21D;59066;54.782;32.024;2023-12-20T05:19:37;4.26;104.73
43772;HTU21D;59066;54.782;32.024;2023-12-20T05:22:05;4.22;104.70
43772;HTU21D;59066;54.782;32.024;2023-12-20T05:24:32;4.28;104.67
43772;HTU21D;59066;54.782;32.024;2023-12-20T05:27:00;4.27;104.51
43772;HTU21D;59066;54.782;32.024;2023-12-20T05:29:28;4.27;104.62
43772;HTU21D;59066;54.782;32.024;2023-12-20T05:31:55;4.27;104.57
43772;HTU21D;59066;54.782;32.024;2023-12-20T05:34:23;4.28;104.75
43772;HTU21D;59066;54.782;32.024;2023-12-20T05:36:51;4.30;104.60
43772;HTU21D;59066;54.782;32.024;2023-12-20T05:39:19;4.30;104.82
43772;HTU21D;59066;54.782;32.024;2023-12-20T05:41:46;4.28;104.24
43772;HTU21D;59066;54.782;32.024;2023-12-20T05:44:14;4.31;104.69
43772;HTU21D;59066;54.782;32.024;2023-12-20T05:46:41;4.33;104.52
43772;HTU21D;59066;54.782;32.024;2023-12-20T05:49:09;4.31;104.50
43772;HTU21D;59066;54.782;32.024;2023-12-20T05:51:36;4.30;104.21
43772;HTU21D;59066;54.782;32.024;2023-12-20T05:54:04;4.22;104.43
43772;HTU21D;59066;54.782;32.024;2023-12-20T05:56:31;4.23;104.49
43772;HTU21D;59066;54.782;32.024;2023-12-20T05:58:59;4.19;104.43
43772;HTU21D;59066;54.782;32.024;2023-12-20T06:01:27;4.21;104.63
43772;HTU21D;59066;54.782;32.024;2023-12-20T06:03:54;4.21;104.39
43772;HTU21D;59066;54.782;32.024;2023-12-20T06:06:23;4.21;104.48
43772;HTU21D;59066;54.782;32.024;2023-12-20T06:08:51;4.19;104.21
43772;HTU21D;59066;54.782;32.024;2023-12-20T06:11:19;4.20;104.21
43772;HTU21D;59066;54.782;32.024;2023-12-20T06:13:46;4.16;104.24
43772;HTU21D;59066;54.782;32.024;2023-12-20T06:16:14;4.18;104.47
43772;HTU21D;59066;54.782;32.024;2023-12-20T06:18:42;4.19;104.47
43772;HTU21D;59066;54.782;32.024;2023-12-20T06:21:10;4.14;104.35
43772;HTU21D;59066;54.782;32.024;2023-12-20T06:23:40;4.14;104.41
43772;HTU21D;59066;54.782;32.024;2023-12-20T06:26:08;4.13;104.55
43772;HTU21D;59066;54.782;32.024;2023-12-20T06:28:35;4.10;104.74
43772;HTU21D;59066;54.782;32.024;2023-12-20T06:31:05;4.15;104.65
43772;HTU21D;59066;54.782;32.024;2023-12-20T06:33:33;4.17;104.80
43772;HTU21D;59066;54.782;32.024;2023-12-20T06:36:01;4.16;104.67
43772;HTU21D;59066;54.782;32.024;2023-12-20T06:38:28;4.13;104.42
43772;HTU21D;59066;54.782;32.024;2023-12-20T06:40:56;4.09;104.51
43772;HTU21D;59066;54.782;32.024;2023-12-20T06:43:25;4.05;104.50
43772;HTU21D;59066;54.782;32.024;2023-12-20T06:46:03;4.10;104.73
43772;HTU21D;59066;54.782;32.024;2023-12-20T06:48:31;4.12;104.58
43772;HTU21D;59066;54.782;32.024;2023-12-20T06:51:00;4.08;104.58
43772;HTU21D;59066;54.782;32.024;2023-12-20T06:53:29;4.07;104.72
43772;HTU21D;59066;54.782;32.024;2023-12-20T06:55:57;4.08;104.63
43772;HTU21D;59066;54.782;32.024;2023-12-20T06:58:25;4.12;104.79
43772;HTU21D;59066;54.782;32.024;2023-12-20T07:00:53;4.14;104.70
43772;HTU21D;59066;54.782;32.024;2023-12-20T07:03:20;4.17;104.77
43772;HTU21D;59066;54.782;32.024;2023-12-20T07:05:48;4.10;104.54
43772;HTU21D;59066;54.782;32.024;2023-12-20T07:08:16;4.14;104.66
43772;HTU21D;59066;54.782;32.024;2023-12-20T07:10:43;4.16;104.58
43772;HTU21D;59066;54.782;32.024;2023-12-20T07:13:11;4.13;104.39
43772;HTU21D;59066;54.782;32.024;2023-12-20T07:15:40;4.07;104.34
43772;HTU21D;59066;54.782;32.024;2023-12-20T07:18:08;4.10;104.61
43772;HTU21D;59066;54.782;32.024;2023-12-20T07:20:36;4.02;104.53
43772;HTU21D;59066;54.782;32.024;2023-12-20T07:23:03;4.02;104.58
43772;HTU21D;59066;54.782;32.024;2023-12-20T07:25:31;4.06;104.92
43772;HTU21D;59066;54.782;32.024;2023-12-20T07:28:00;4.04;104.73
43772;HTU21D;59066;54.782;32.024;2023-12-20T07:30:28;4.02;104.82
43772;HTU21D;59066;54.782;32.024;2023-12-20T07:32:57;3.95;104.79
43772;HTU21D;59066;54.782;32.024;2023-12-20T07:35:24;4.03;105.05
43772;HTU21D;59066;54.782;32.024;2023-12-20T07:37:52;4.03;105.06
43772;HTU21D;59066;54.782;32.024;2023-12-20T07:40:20;4.07;104.94
43772;HTU21D;59066;54.782;32.024;2023-12-20T07:42:48;4.06;104.92
43772;HTU21D;59066;54.782;32.024;2023-12-20T07:45:15;4.09;105.02
43772;HTU21D;59066;54.782;32.024;2023-12-20T07:47:43;4.08;104.87
43772;HTU21D;59066;54.782;32.024;2023-12-20T07:50:11;4.04;104.83
43772;HTU21D;59066;54.782;32.024;2023-12-20T07:52:39;4.09;105.11
43772;HTU21D;59066;54.782;32.024;2023-12-20T07:55:07;4.14;105.32
43772;HTU21D;59066;54.782;32.024;2023-12-20T07:57:35;4.14;104.93
43772;HTU21D;59066;54.782;32.024;2023-12-20T08:00:03;4.10;105.02
43772;HTU21D;59066;54.782;32.024;2023-12-20T08:02:31;4.10;104.76
43772;HTU21D;59066;54.782;32.024;2023-12-20T08:04:59;4.13;105.02
43772;HTU21D;59066;54.782;32.024;2023-12-20T08:07:26;4.15;104.89
43772;HTU21D;59066;54.782;32.024;2023-12-20T08:09:54;4.16;105.08
43772;HTU21D;59066;54.782;32.024;2023-12-20T08:12:24;4.12;105.04
43772;HTU21D;59066;54.782;32.024;2023-12-20T08:14:54;4.16;105.36
43772;HTU21D;59066;54.782;32.024;2023-12-20T08:17:22;4.16;105.10
43772;HTU21D;59066;54.782;32.024;2023-12-20T08:19:51;4.18;104.78
43772;HTU21D;59066;54.782;32.024;2023-12-20T08:22:19;4.14;105.05
43772;HTU21D;59066;54.782;32.024;2023-12-20T08:24:46;4.13;104.95
43772;HTU21D;59066;54.782;32.024;2023-12-20T08:27:14;4.14;105.03
43772;HTU21D;59066;54.782;32.024;2023-12-20T08:29:43;4.14;104.93
43772;HTU21D;59066;54.782;32.024;2023-12-20T08:32:12;4.16;105.24
43772;HTU21D;59066;54.782;32.024;2023-12-20T08:34:40;4.19;105.31
43772;HTU21D;59066;54.782;32.024;2023-12-20T08:37:07;4.15;105.05
43772;HTU21D;59066;54.782;32.024;2023-12-20T08:39:36;4.17;105.25
43772;HTU21D;59066;54.782;32.024;2023-12-20T08:42:04;4.20;105.27
43772;HTU21D;59066;54.782;32.024;2023-12-20T08:44:32;4.26;105.33
43772;HTU21D;59066;54.782;32.024;2023-12-20T08:46:59;4.28;105.20
43772;HTU21D;59066;54.782;32.024;2023-12-20T08:49:28;4.29;104.94
43772;HTU21D;59066;54.782;32.024;2023-12-20T08:51:55;4.29;104.94
43772;HTU21D;59066;54.782;32.024;2023-12-20T08:54:23;4.30;105.18
43772;HTU21D;59066;54.782;32.024;2023-12-20T08:56:51;4.33;104.68
43772;HTU21D;59066;54.782;32.024;2023-12-20T08:59:19;4.30;104.82
43772;HTU21D;59066;54.782;32.024;2023-12-20T09:01:47;4.31;104.65
43772;HTU21D;59066;54.782;32.024;2023-12-20T09:04:15;4.31;104.63
43772;HTU21D;59066;54.782;32.024;2023-12-20T09:06:43;4.31;104.50
43772;HTU21D;59066;54.782;32.024;2023-12-20T09:09:11;4.29;104.26
43772;HTU21D;59066;54.782;32.024;2023-12-20T09:11:41;4.30;104.35
43772;HTU21D;59066;54.782;32.024;2023-12-20T09:14:09;4.23;104.31
43772;HTU21D;59066;54.782;32.024;2023-12-20T09:16:36;4.23;104.52
43772;HTU21D;59066;54.782;32.024;2023-12-20T09:19:04;4.23;104.25
43772;HTU21D;59066;54.782;32.024;2023-12-20T09:21:32;4.22;104.36
43772;HTU21D;59066;54.782;32.024;2023-12-20T09:23:59;4.23;104.32
43772;HTU21D;59066;54.782;32.024;2023-12-20T09:26:28;4.26;104.44
43772;HTU21D;59066;54.782;32.024;2023-12-20T09:28:55;4.26;104.36
43772;HTU21D;59066;54.782;32.024;2023-12-20T09:31:23;4.27;104.48
43772;HTU21D;59066;54.782;32.024;2023-12-20T09:33:51;4.29;104.56
43772;HTU21D;59066;54.782;32.024;2023-12-20T09:36:18;4.24;104.40
43772;HTU21D;59066;54.782;32.024;2023-12-20T09:38:46;4.26;104.35
43772;HTU21D;59066;54.782;32.024;2023-12-20T09:41:14;4.27;104.38
43772;HTU21D;59066;54.782;32.024;2023-12-20T09:43:41;4.30;104.18
43772;HTU21D;59066;54.782;32.024;2023-12-20T09:46:12;4.28;104.36
43772;HTU21D;59066;54.782;32.024;2023-12-20T09:48:41;4.27;104.40
43772;HTU21D;59066;54.782;32.024;2023-12-20T09:51:10;4.28;104.30
43772;HTU21D;59066;54.782;32.024;2023-12-20T09:53:38;4.29;104.40
43772;HTU21D;59066;54.782;32.024;2023-12-20T09:56:07;4.30;104.27
43772;HTU21D;59066;54.782;32.024;2023-12-20T09:58:38;4.29;104.15
43772;HTU21D;59066;54.782;32.024;2023-12-20T10:01:07;4.29;104.34
43772;HTU21D;59066;54.782;32.024;2023-12-20T10:03:36;4.26;104.17
43772;HTU21D;59066;54.782;32.024;2023-12-20T10:06:07;4.26;104.34
43772;HTU21D;59066;54.782;32.024;2023-12-20T10:08:36;4.27;104.17
43772;HTU21D;59066;54.782;32.024;2023-12-20T10:11:05;4.30;104.39
43772;HTU21D;59066;54.782;32.024;2023-12-20T10:13:32;4.28;104.19
43772;HTU21D;59066;54.782;32.024;2023-12-20T10:16:00;4.30;104.72
43772;HTU21D;59066;54.782;32.024;2023-12-20T10:18:29;4.33;104.34
43772;HTU21D;59066;54.782;32.024;2023-12-20T10:21:03;4.30;104.27
43772;HTU21D;59066;54.782;32.024;2023-12-20T10:23:31;4.28;104.13
43772;HTU21D;59066;54.782;32.024;2023-12-20T10:26:00;4.30;104.12
43772;HTU21D;59066;54.782;32.024;2023-12-20T10:28:33;4.28;103.83
43772;HTU21D;59066;54.782;32.024;2023-12-20T10:31:02;4.23;104.00
43772;HTU21D;59066;54.782;32.024;2023-12-20T10:33:30;4.27;104.00
43772;HTU21D;59066;54.782;32.024;2023-12-20T10:36:02;4.28;103.70
43772;HTU21D;59066;54.782;32.024;2023-12-20T10:38:30;4.26;103.57
43772;HTU21D;59066;54.782;32.024;2023-12-20T10:40:58;4.27;103.56
43772;HTU21D;59066;54.782;32.024;2023-12-20T10:43:28;4.29;103.70
43772;HTU21D;59066;54.782;32.024;2023-12-20T10:45:57;4.31;103.75
43772;HTU21D;59066;54.782;32.024;2023-12-20T10:48:24;4.28;103.48
43772;HTU21D;59066;54.782;32.024;2023-12-20T10:50:58;4.31;103.89
43772;HTU21D;59066;54.782;32.024;2023-12-20T10:53:25;4.37;103.83
43772;HTU21D;59066;54.782;32.024;2023-12-20T10:55:55;4.38;103.55
43772;HTU21D;59066;54.782;32.024;2023-12-20T10:58:24;4.34;103.25
43772;HTU21D;59066;54.782;32.024;2023-12-20T11:00:59;4.34;103.50
43772;HTU21D;59066;54.782;32.024;2023-12-20T11:03:31;4.39;103.70
43772;HTU21D;59066;54.782;32.024;2023-12-20T11:06:27;4.39;103.66
43772;HTU21D;59066;54.782;32.024;2023-12-20T11:11:35;4.44;103.10
43772;HTU21D;59066;54.782;32.024;2023-12-20T11:14:15;4.42;103.04
43772;HTU21D;59066;54.782;32.024;2023-12-20T11:16:45;4.41;102.97
43772;HTU21D;59066;54.782;32.024;2023-12-20T11:19:17;4.42;103.03
43772;HTU21D;59066;54.782;32.024;2023-12-20T11:21:46;4.38;103.02
43772;HTU21D;59066;54.782;32.024;2023-12-20T11:24:15;4.42;103.55
43772;HTU21D;59066;54.782;32.024;2023-12-20T11:26:47;4.51;103.50
43772;HTU21D;59066;54.782;32.024;2023-12-20T11:29:32;4.45;103.28
43772;HTU21D;59066;54.782;32.024;2023-12-20T11:32:01;4.44;103.31
43772;HTU21D;59066;54.782;32.024;2023-12-20T11:34:32;4.44;103.25
43772;HTU21D;59066;54.782;32.024;2023-12-20T11:37:02;4.37;103.02
43772;HTU21D;59066;54.782;32.024;2023-12-20T11:39:31;4.37;103.51
43772;HTU21D;59066;54.782;32.024;2023-12-20T11:42:04;4.37;103.47
43772;HTU21D;59066;54.782;32.024;2023-12-20T11:44:33;4.34;103.05
43772;HTU21D;59066;54.782;32.024;2023-12-20T11:47:01;4.39;103.55
43772;HTU21D;59066;54.782;32.024;2023-12-20T11:49:29;4.34;103.43
43772;HTU21D;59066;54.782;32.024;2023-12-20T11:51:58;4.35;103.41
43772;HTU21D;59066;54.782;32.024;2023-12-20T11:54:27;4.41;103.00
43772;HTU21D;59066;54.782;32.024;2023-12-20T11:56:55;4.37;102.60
43772;HTU21D;59066;54.782;32.024;2023-12-20T11:59:23;4.29;102.47
43772;HTU21D;59066;54.782;32.024;2023-12-20T12:01:51;4.28;102.70
43772;HTU21D;59066;54.782;32.024;2023-12-20T12:04:19;4.29;102.53
43772;HTU21D;59066;54.782;32.024;2023-12-20T12:06:47;4.26;102.05
43772;HTU21D;59066;54.782;32.024;2023-12-20T12:09:15;4.22;101.93
43772;HTU21D;59066;54.782;32.024;2023-12-20T12:11:43;4.21;102.16
43772;HTU21D;59066;54.782;32.024;2023-12-20T12:14:11;4.21;102.30
43772;HTU21D;59066;54.782;32.024;2023-12-20T12:16:39;4.24;102.12
43772;HTU21D;59066;54.782;32.024;2023-12-20T12:19:23;4.14;101.60
43772;HTU21D;59066;54.782;32.024;2023-12-20T12:22:04;4.14;101.38
43772;HTU21D;59066;54.782;32.024;2023-12-20T12:24:33;4.16;101.86
43772;HTU21D;59066;54.782;32.024;2023-12-20T12:27:01;4.16;101.35
43772;HTU21D;59066;54.782;32.024;2023-12-20T12:29:29;4.08;100.80
43772;HTU21D;59066;54.782;32.024;2023-12-20T12:31:57;4.08;100.77
43772;HTU21D;59066;54.782;32.024;2023-12-20T12:34:27;4.06;100.97
43772;HTU21D;59066;54.782;32.024;2023-12-20T12:36:56;4.04;101.14
43772;HTU21D;59066;54.782;32.024;2023-12-20T12:39:24;4.06;101.61
43772;HTU21D;59066;54.782;32.024;2023-12-20T12:41:53;4.07;101.54
43772;HTU21D;59066;54.782;32.024;2023-12-20T12:44:21;4.01;101.56
43772;HTU21D;59066;54.782;32.024;2023-12-20T12:46:51;4.06;103.11
43772;HTU21D;59066;54.782;32.024;2023-12-20T12:49:20;4.17;102.07
43772;HTU21D;59066;54.782;32.024;2023-12-20T12:51:51;4.10;101.60
43772;HTU21D;59066;54.782;32.024;2023-12-20T12:54:19;4.00;101.38
43772;HTU21D;59066;54.782;32.024;2023-12-20T12:56:48;4.01;102.02
43772;HTU21D;59066;54.782;32.024;2023-12-20T12:59:17;3.95;101.81
43772;HTU21D;59066;54.782;32.024;2023-12-20T13:01:44;4.00;102.29
43772;HTU21D;59066;54.782;32.024;2023-12-20T13:04:12;3.97;102.13
43772;HTU21D;59066;54.782;32.024;2023-12-20T13:06:40;3.99;102.12
43772;HTU21D;59066;54.782;32.024;2023-12-20T13:09:10;3.95;102.55
43772;HTU21D;59066;54.782;32.024;2023-12-20T13:11:38;4.02;102.57
43772;HTU21D;59066;54.782;32.024;2023-12-20T13:14:05;4.08;102.67
43772;HTU21D;59066;54.782;32.024;2023-12-20T13:16:34;4.07;102.44
43772;HTU21D;59066;54.782;32.024;2023-12-20T13:19:02;4.07;102.05
43772;HTU21D;59066;54.782;32.024;2023-12-20T13:21:29;4.02;101.85
43772;HTU21D;59066;54.782;32.024;2023-12-20T13:23:58;4.01;102.20
43772;HTU21D;59066;54.782;32.024;2023-12-20T13:26:25;3.99;102.31
43772;HTU21D;59066;54.782;32.024;2023-12-20T13:28:54;3.97;102.45
43772;HTU21D;59066;54.782;32.024;2023-12-20T13:31:22;3.94;102.36
43772;HTU21D;59066;54.782;32.024;2023-12-20T13:33:49;3.90;102.44
43772;HTU21D;59066;54.782;32.024;2023-12-20T13:36:19;3.91;102.52
43772;HTU21D;59066;54.782;32.024;2023-12-20T13:38:47;3.92;102.70
43772;HTU21D;59066;54.782;32.024;2023-12-20T13:41:15;3.87;102.48
43772;HTU21D;59066;54.782;32.024;2023-12-20T13:43:43;3.91;102.70
43772;HTU21D;59066;54.782;32.024;2023-12-20T13:46:10;3.86;102.48
43772;HTU21D;59066;54.782;32.024;2023-12-20T13:48:38;3.85;102.73
43772;HTU21D;59066;54.782;32.024;2023-12-20T13:51:05;3.86;102.68
43772;HTU21D;59066;54.782;32.024;2023-12-20T13:53:33;3.93;103.02
43772;HTU21D;59066;54.782;32.024;2023-12-20T13:56:01;3.98;103.14
43772;HTU21D;59066;54.782;32.024;2023-12-20T13:58:28;3.95;102.72
43772;HTU21D;59066;54.782;32.024;2023-12-20T14:00:56;3.99;102.71
43772;HTU21D;59066;54.782;32.024;2023-12-20T14:03:23;3.99;102.82
43772;HTU21D;59066;54.782;32.024;2023-12-20T14:05:51;4.00;102.56
43772;HTU21D;59066;54.782;32.024;2023-12-20T14:08:19;4.02;103.12
43772;HTU21D;59066;54.782;32.024;2023-12-20T14:10:46;4.16;103.29
43772;HTU21D;59066;54.782;32.024;2023-12-20T14:13:14;4.06;102.53
43772;HTU21D;59066;54.782;32.024;2023-12-20T14:15:41;4.01;102.57
43772;HTU21D;59066;54.782;32.024;2023-12-20T14:18:09;3.95;102.72
43772;HTU21D;59066;54.782;32.024;2023-12-20T14:20:37;3.99;102.67
43772;HTU21D;59066;54.782;32.024;2023-12-20T14:23:07;3.98;102.56
43772;HTU21D;59066;54.782;32.024;2023-12-20T14:25:36;3.98;102.77
43772;HTU21D;59066;54.782;32.024;2023-12-20T14:28:08;3.94;102.73
43772;HTU21D;59066;54.782;32.024;2023-12-20T14:30:37;3.91;102.66
43772;HTU21D;59066;54.782;32.024;2023-12-20T14:33:05;3.94;103.11
43772;HTU21D;59066;54.782;32.024;2023-12-20T14:35:33;3.89;102.72
43772;HTU21D;59066;54.782;32.024;2023-12-20T14:38:01;3.99;103.42
43772;HTU21D;59066;54.782;32.024;2023-12-20T14:40:28;4.07;104.15
43772;HTU21D;59066;54.782;32.024;2023-12-20T14:42:57;4.10;102.84
43772;HTU21D;59066;54.782;32.024;2023-12-20T14:45:24;3.98;102.60
43772;HTU21D;59066;54.782;32.024;2023-12-20T14:47:52;3.93;102.73
43772;HTU21D;59066;54.782;32.024;2023-12-20T14:50:20;3.95;103.08
43772;HTU21D;59066;54.782;32.024;2023-12-20T14:52:49;3.93;102.96
43772;HTU21D;59066;54.782;32.024;2023-12-20T14:55:16;3.93;103.09
43772;HTU21D;59066;54.782;32.024;2023-12-20T14:57:44;3.89;102.77
43772;HTU21D;59066;54.782;32.024;2023-12-20T15:00:12;4.00;103.32
43772;HTU21D;59066;54.782;32.024;2023-12-20T15:02:44;4.01;103.12
43772;HTU21D;59066;54.782;32.024;2023-12-20T15:05:12;4.04;103.12
43772;HTU21D;59066;54.782;32.024;2023-12-20T15:07:41;4.08;103.36
43772;HTU21D;59066;54.782;32.024;2023-12-20T15:10:09;4.12;102.95
43772;HTU21D;59066;54.782;32.024;2023-12-20T15:12:37;4.18;103.33